sensor_id;sensor_type;location;lat;lon;timestamp;pressure;altitude;pressure_sealevel;temperature;humidity
45991;BME280;31721;41.740;-88.000;2024-02-04T00:00:07;99196.88;;;2.76;46.58
45991;BME280;31721;41.740;-88.000;2024-02-04T00:02:35;99198.97;;;2.61;46.52
45991;BME280;31721;41.740;-88.000;2024-02-04T00:05:03;99196.76;;;2.52;46.86
45991;BME280;31721;41.740;-88.000;2024-02-04T00:07:32;99196.07;;;2.44;46.67
45991;BME280;31721;41.740;-88.000;2024-02-04T00:09:59;99197.47;;;2.37;47.07
45991;BME280;31721;41.740;-88.000;2024-02-04T00:12:27;99194.32;;;2.40;47.47
45991;BME280;31721;41.740;-88.000;2024-02-04T00:14:55;99193.18;;;2.21;47.17
45991;BME280;31721;41.740;-88.000;2024-02-04T00:17:24;99190.04;;;2.32;47.35
45991;BME280;31721;41.740;-88.000;2024-02-04T00:19:52;99188.70;;;2.15;47.53
45991;BME280;31721;41.740;-88.000;2024-02-04T00:22:20;99186.98;;;2.22;47.48
45991;BME280;31721;41.740;-88.000;2024-02-04T00:24:48;99183.25;;;2.23;47.67
45991;BME280;31721;41.740;-88.000;2024-02-04T00:27:16;99178.15;;;2.15;47.69
45991;BME280;31721;41.740;-88.000;2024-02-04T00:29:44;99183.85;;;2.20;47.71
45991;BME280;31721;41.740;-88.000;2024-02-04T00:32:12;99186.23;;;2.18;47.95
45991;BME280;31721;41.740;-88.000;2024-02-04T00:34:41;99188.95;;;2.12;47.68
45991;BME280;31721;41.740;-88.000;2024-02-04T00:37:09;99188.08;;;2.03;47.83
45991;BME280;31721;41.740;-88.000;2024-02-04T00:39:37;99184.74;;;1.82;48.00
45991;BME280;31721;41.740;-88.000;2024-02-04T00:42:05;99179.51;;;2.00;48.25
45991;BME280;31721;41.740;-88.000;2024-02-04T00:44:33;99177.91;;;1.92;48.29
45991;BME280;31721;41.740;-88.000;2024-02-04T00:47:01;99174.53;;;1.91;48.35
45991;BME280;31721;41.740;-88.000;2024-02-04T00:49:29;99169.87;;;1.86;48.39
45991;BME280;31721;41.740;-88.000;2024-02-04T00:51:57;99169.11;;;1.90;48.67
45991;BME280;31721;41.740;-88.000;2024-02-04T00:54:25;99171.50;;;1.82;48.45
45991;BME280;31721;41.740;-88.000;2024-02-04T00:56:53;99183.55;;;1.47;49.38
45991;BME280;31721;41.740;-88.000;2024-02-04T00:59:20;99192.15;;;1.74;48.92
45991;BME280;31721;41.740;-88.000;2024-02-04T01:01:48;99198.22;;;1.68;49.20
45991;BME280;31721;41.740;-88.000;2024-02-04T01:04:16;99201.60;;;1.59;49.11
45991;BME280;31721;41.740;-88.000;2024-02-04T01:06:44;99201.94;;;1.50;49.02
45991;BME280;31721;41.740;-88.000;2024-02-04T01:09:13;99204.68;;;1.45;49.35
45991;BME280;31721;41.740;-88.000;2024-02-04T01:11:41;99204.16;;;1.45;49.31
45991;BME280;31721;41.740;-88.000;2024-02-04T01:14:09;99205.73;;;1.46;49.45
45991;BME280;31721;41.740;-88.000;2024-02-04T01:16:37;99202.93;;;1.55;49.61
45991;BME280;31721;41.740;-88.000;2024-02-04T01:19:06;99197.84;;;1.63;49.58
45991;BME280;31721;41.740;-88.000;2024-02-04T01:21:34;99199.36;;;1.47;49.67
45991;BME280;31721;41.740;-88.000;2024-02-04T01:24:02;99196.66;;;1.53;49.75
45991;BME280;31721;41.740;-88.000;2024-02-04T01:26:30;99191.75;;;1.51;49.72
45991;BME280;31721;41.740;-88.000;2024-02-04T01:28:58;99187.10;;;1.40;49.86
45991;BME280;31721;41.740;-88.000;2024-02-04T01:31:25;99195.52;;;1.40;49.96
45991;BME280;31721;41.740;-88.000;2024-02-04T01:33:53;99201.71;;;1.41;50.31
45991;BME280;31721;41.740;-88.000;2024-02-04T01:36:22;99206.93;;;1.43;50.22
45991;BME280;31721;41.740;-88.000;2024-02-04T01:38:50;99210.46;;;1.32;50.52
45991;BME280;31721;41.740;-88.000;2024-02-04T01:41:18;99213.49;;;1.30;50.83
45991;BME280;31721;41.740;-88.000;2024-02-04T01:43:46;99206.29;;;1.33;50.52
45991;BME280;31721;41.740;-88.000;2024-02-04T01:46:14;99200.91;;;1.37;50.59
45991;BME280;31721;41.740;-88.000;2024-02-04T01:48:42;99194.81;;;1.46;50.71
45991;BME280;31721;41.740;-88.000;2024-02-04T01:51:10;99192.55;;;1.30;50.67
45991;BME280;31721;41.740;-88.000;2024-02-04T01:53:40;99189.71;;;1.43;51.09
45991;BME280;31721;41.740;-88.000;2024-02-04T01:56:13;99186.73;;;1.43;50.92
45991;BME280;31721;41.740;-88.000;2024-02-04T01:58:42;99189.51;;;1.24;51.11
45991;BME280;31721;41.740;-88.000;2024-02-04T02:01:10;99194.29;;;1.24;51.23
45991;BME280;31721;41.740;-88.000;2024-02-04T02:03:39;99192.32;;;1.25;51.30
45991;BME280;31721;41.740;-88.000;2024-02-04T02:06:07;99195.15;;;1.24;51.58
45991;BME280;31721;41.740;-88.000;2024-02-04T02:08:35;99192.34;;;1.21;51.83
45991;BME280;31721;41.740;-88.000;2024-02-04T02:11:08;99187.40;;;1.19;51.52
45991;BME280;31721;41.740;-88.000;2024-02-04T02:13:39;99182.85;;;1.10;51.61
45991;BME280;31721;41.740;-88.000;2024-02-04T02:16:11;99175.68;;;1.09;51.87
45991;BME280;31721;41.740;-88.000;2024-02-04T02:18:44;99174.32;;;1.17;51.82
45991;BME280;31721;41.740;-88.000;2024-02-04T02:21:25;99176.15;;;1.17;51.85
45991;BME280;31721;41.740;-88.000;2024-02-04T02:24:03;99178.07;;;1.20;52.15
45991;BME280;31721;41.740;-88.000;2024-02-04T02:26:32;99174.29;;;1.21;52.03
45991;BME280;31721;41.740;-88.000;2024-02-04T02:29:01;99169.81;;;1.14;51.86
45991;BME280;31721;41.740;-88.000;2024-02-04T02:31:30;99165.84;;;1.24;52.23
45991;BME280;31721;41.740;-88.000;2024-02-04T02:33:57;99158.51;;;1.12;52.17
45991;BME280;31721;41.740;-88.000;2024-02-04T02:36:27;99158.08;;;1.15;52.39
45991;BME280;31721;41.740;-88.000;2024-02-04T02:39:03;99158.39;;;1.08;52.60
45991;BME280;31721;41.740;-88.000;2024-02-04T02:41:36;99152.52;;;1.19;52.46
45991;BME280;31721;41.740;-88.000;2024-02-04T02:44:06;99145.23;;;1.16;52.49
45991;BME280;31721;41.740;-88.000;2024-02-04T02:46:35;99143.43;;;1.20;52.76
45991;BME280;31721;41.740;-88.000;2024-02-04T02:49:03;99145.13;;;1.13;52.76
45991;BME280;31721;41.740;-88.000;2024-02-04T02:51:31;99148.03;;;1.11;52.64
45991;BME280;31721;41.740;-88.000;2024-02-04T02:53:59;99154.20;;;1.18;53.26
45991;BME280;31721;41.740;-88.000;2024-02-04T02:56:27;99153.70;;;1.02;53.34
45991;BME280;31721;41.740;-88.000;2024-02-04T02:58:55;99152.94;;;1.16;53.40
45991;BME280;31721;41.740;-88.000;2024-02-04T03:01:23;99154.71;;;1.11;53.27
45991;BME280;31721;41.740;-88.000;2024-02-04T03:03:52;99151.01;;;1.15;53.26
45991;BME280;31721;41.740;-88.000;2024-02-04T03:06:19;99152.39;;;1.04;53.51
45991;BME280;31721;41.740;-88.000;2024-02-04T03:08:48;99150.75;;;1.08;53.46
45991;BME280;31721;41.740;-88.000;2024-02-04T03:11:16;99149.87;;;1.03;53.73
45991;BME280;31721;41.740;-88.000;2024-02-04T03:13:43;99148.54;;;1.19;54.34
45991;BME280;31721;41.740;-88.000;2024-02-04T03:16:12;99148.98;;;1.09;54.15
45991;BME280;31721;41.740;-88.000;2024-02-04T03:18:41;99147.76;;;1.02;54.18
45991;BME280;31721;41.740;-88.000;2024-02-04T03:21:13;99145.06;;;1.19;54.18
45991;BME280;31721;41.740;-88.000;2024-02-04T03:23:42;99144.15;;;1.14;54.23
45991;BME280;31721;41.740;-88.000;2024-02-04T03:26:11;99147.22;;;1.11;54.29
45991;BME280;31721;41.740;-88.000;2024-02-04T03:28:39;99149.74;;;1.11;54.48
45991;BME280;31721;41.740;-88.000;2024-02-04T03:31:07;99151.47;;;1.09;54.51
45991;BME280;31721;41.740;-88.000;2024-02-04T03:33:35;99149.26;;;1.19;54.72
45991;BME280;31721;41.740;-88.000;2024-02-04T03:36:03;99149.09;;;1.14;54.83
45991;BME280;31721;41.740;-88.000;2024-02-04T03:38:31;99150.35;;;1.25;54.65
45991;BME280;31721;41.740;-88.000;2024-02-04T03:40:59;99148.89;;;1.11;54.70
45991;BME280;31721;41.740;-88.000;2024-02-04T03:43:27;99149.26;;;1.29;54.80
45991;BME280;31721;41.740;-88.000;2024-02-04T03:45:55;99152.10;;;1.11;55.03
45991;BME280;31721;41.740;-88.000;2024-02-04T03:48:23;99156.62;;;1.17;54.73
45991;BME280;31721;41.740;-88.000;2024-02-04T03:50:51;99157.99;;;1.09;55.11
45991;BME280;31721;41.740;-88.000;2024-02-04T03:53:19;99154.54;;;1.10;54.96
45991;BME280;31721;41.740;-88.000;2024-02-04T03:55:48;99148.92;;;1.13;55.11
45991;BME280;31721;41.740;-88.000;2024-02-04T03:58:15;99148.47;;;1.15;54.88
45991;BME280;31721;41.740;-88.000;2024-02-04T04:00:43;99150.77;;;1.17;54.92
45991;BME280;31721;41.740;-88.000;2024-02-04T04:03:11;99158.61;;;1.21;55.26
45991;BME280;31721;41.740;-88.000;2024-02-04T04:05:40;99159.06;;;1.25;55.06
45991;BME280;31721;41.740;-88.000;2024-02-04T04:08:07;99158.39;;;1.25;55.17
45991;BME280;31721;41.740;-88.000;2024-02-04T04:10:35;99152.72;;;1.23;55.06
45991;BME280;31721;41.740;-88.000;2024-02-04T04:13:03;99143.62;;;1.19;54.74
45991;BME280;31721;41.740;-88.000;2024-02-04T04:15:31;99135.32;;;1.18;54.77
45991;BME280;31721;41.740;-88.000;2024-02-04T04:17:59;99131.48;;;1.18;54.89
45991;BME280;31721;41.740;-88.000;2024-02-04T04:20:27;99133.86;;;1.09;55.04
45991;BME280;31721;41.740;-88.000;2024-02-04T04:22:56;99135.81;;;1.23;55.10
45991;BME280;31721;41.740;-88.000;2024-02-04T04:25:24;99138.75;;;1.25;54.92
45991;BME280;31721;41.740;-88.000;2024-02-04T04:27:52;99138.00;;;1.26;55.05
45991;BME280;31721;41.740;-88.000;2024-02-04T04:30:20;99132.15;;;1.27;55.17
45991;BME280;31721;41.740;-88.000;2024-02-04T04:32:48;99132.77;;;1.12;55.28
45991;BME280;31721;41.740;-88.000;2024-02-04T04:35:16;99133.89;;;1.02;55.11
45991;BME280;31721;41.740;-88.000;2024-02-04T04:37:44;99133.62;;;1.04;55.31
45991;BME280;31721;41.740;-88.000;2024-02-04T04:40:12;99132.54;;;1.08;55.23
45991;BME280;31721;41.740;-88.000;2024-02-04T04:42:40;99131.91;;;0.88;54.95
45991;BME280;31721;41.740;-88.000;2024-02-04T04:45:08;99130.20;;;0.97;55.44
45991;BME280;31721;41.740;-88.000;2024-02-04T04:47:37;99124.48;;;0.87;55.57
45991;BME280;31721;41.740;-88.000;2024-02-04T04:50:06;99120.64;;;0.94;55.52
45991;BME280;31721;41.740;-88.000;2024-02-04T04:52:33;99121.12;;;0.96;55.69
45991;BME280;31721;41.740;-88.000;2024-02-04T04:55:02;99124.50;;;1.00;55.37
45991;BME280;31721;41.740;-88.000;2024-02-04T04:57:29;99120.68;;;0.96;55.35
45991;BME280;31721;41.740;-88.000;2024-02-04T04:59:57;99112.69;;;0.89;55.11
45991;BME280;31721;41.740;-88.000;2024-02-04T05:02:25;99105.87;;;0.88;55.21
45991;BME280;31721;41.740;-88.000;2024-02-04T05:04:53;99103.22;;;0.90;55.22
45991;BME280;31721;41.740;-88.000;2024-02-04T05:07:21;99101.83;;;0.89;55.49
45991;BME280;31721;41.740;-88.000;2024-02-04T05:09:48;99101.12;;;0.88;55.42
45991;BME280;31721;41.740;-88.000;2024-02-04T05:12:16;99096.75;;;0.86;55.43
45991;BME280;31721;41.740;-88.000;2024-02-04T05:14:43;99095.46;;;0.96;55.55
45991;BME280;31721;41.740;-88.000;2024-02-04T05:17:11;99100.91;;;0.92;55.70
45991;BME280;31721;41.740;-88.000;2024-02-04T05:19:41;99107.25;;;1.01;55.69
45991;BME280;31721;41.740;-88.000;2024-02-04T05:22:09;99102.93;;;0.90;55.84
45991;BME280;31721;41.740;-88.000;2024-02-04T05:24:37;99099.76;;;0.89;55.70
45991;BME280;31721;41.740;-88.000;2024-02-04T05:27:05;99099.76;;;0.90;55.83
45991;BME280;31721;41.740;-88.000;2024-02-04T05:29:33;99097.35;;;0.92;55.67
45991;BME280;31721;41.740;-88.000;2024-02-04T05:32:01;99098.38;;;0.99;55.68
45991;BME280;31721;41.740;-88.000;2024-02-04T05:34:29;99100.59;;;0.82;55.62
45991;BME280;31721;41.740;-88.000;2024-02-04T05:36:57;99098.41;;;0.77;55.93
45991;BME280;31721;41.740;-88.000;2024-02-04T05:39:24;99097.80;;;0.84;55.90
45991;BME280;31721;41.740;-88.000;2024-02-04T05:41:52;99093.21;;;0.83;55.85
45991;BME280;31721;41.740;-88.000;2024-02-04T05:44:20;99088.93;;;0.81;55.94
45991;BME280;31721;41.740;-88.000;2024-02-04T05:46:48;99082.28;;;0.74;55.90
45991;BME280;31721;41.740;-88.000;2024-02-04T05:49:15;99078.04;;;0.80;55.89
45991;BME280;31721;41.740;-88.000;2024-02-04T05:51:43;99071.62;;;0.83;56.04
45991;BME280;31721;41.740;-88.000;2024-02-04T05:54:12;99064.91;;;0.86;56.01
45991;BME280;31721;41.740;-88.000;2024-02-04T05:56:39;99065.34;;;0.94;55.91
45991;BME280;31721;41.740;-88.000;2024-02-04T05:59:08;99062.63;;;0.86;55.91
45991;BME280;31721;41.740;-88.000;2024-02-04T06:01:35;99055.21;;;0.85;56.06
45991;BME280;31721;41.740;-88.000;2024-02-04T06:04:04;99050.05;;;0.86;55.94
45991;BME280;31721;41.740;-88.000;2024-02-04T06:06:31;99044.95;;;0.85;55.91
45991;BME280;31721;41.740;-88.000;2024-02-04T06:08:58;99039.89;;;0.87;55.90
45991;BME280;31721;41.740;-88.000;2024-02-04T06:11:26;99035.40;;;0.98;56.07
45991;BME280;31721;41.740;-88.000;2024-02-04T06:13:54;99031.48;;;0.84;56.20
45991;BME280;31721;41.740;-88.000;2024-02-04T06:16:22;99029.26;;;0.89;56.41
45991;BME280;31721;41.740;-88.000;2024-02-04T06:18:49;99025.76;;;0.82;56.37
45991;BME280;31721;41.740;-88.000;2024-02-04T06:21:17;99020.07;;;0.91;56.76
45991;BME280;31721;41.740;-88.000;2024-02-04T06:23:45;99011.41;;;0.82;56.82
45991;BME280;31721;41.740;-88.000;2024-02-04T06:26:14;99009.60;;;0.91;56.83
45991;BME280;31721;41.740;-88.000;2024-02-04T06:28:42;99005.85;;;0.81;56.45
45991;BME280;31721;41.740;-88.000;2024-02-04T06:31:10;99000.83;;;1.02;56.92
45991;BME280;31721;41.740;-88.000;2024-02-04T06:33:38;99003.20;;;0.96;56.67
45991;BME280;31721;41.740;-88.000;2024-02-04T06:36:09;98999.24;;;0.93;56.64
45991;BME280;31721;41.740;-88.000;2024-02-04T06:38:37;99003.81;;;1.06;56.71
45991;BME280;31721;41.740;-88.000;2024-02-04T06:41:05;99003.35;;;0.92;56.99
45991;BME280;31721;41.740;-88.000;2024-02-04T06:43:33;99005.60;;;0.90;57.48
45991;BME280;31721;41.740;-88.000;2024-02-04T06:46:01;99004.06;;;0.88;57.34
45991;BME280;31721;41.740;-88.000;2024-02-04T06:48:28;99004.01;;;0.92;57.07
45991;BME280;31721;41.740;-88.000;2024-02-04T06:50:57;99000.75;;;0.94;57.06
45991;BME280;31721;41.740;-88.000;2024-02-04T06:53:24;99001.55;;;1.08;56.73
45991;BME280;31721;41.740;-88.000;2024-02-04T06:55:52;98997.94;;;1.09;56.96
45991;BME280;31721;41.740;-88.000;2024-02-04T06:58:20;98994.64;;;1.17;56.95
45991;BME280;31721;41.740;-88.000;2024-02-04T07:00:48;98995.32;;;1.04;56.75
45991;BME280;31721;41.740;-88.000;2024-02-04T07:03:16;98997.04;;;1.03;56.79
45991;BME280;31721;41.740;-88.000;2024-02-04T07:05:44;98995.09;;;1.08;56.86
45991;BME280;31721;41.740;-88.000;2024-02-04T07:08:11;98998.60;;;1.08;57.00
45991;BME280;31721;41.740;-88.000;2024-02-04T07:10:39;99001.35;;;0.94;56.80
45991;BME280;31721;41.740;-88.000;2024-02-04T07:13:07;99003.73;;;1.07;56.85
45991;BME280;31721;41.740;-88.000;2024-02-04T07:15:35;99006.23;;;1.13;56.74
45991;BME280;31721;41.740;-88.000;2024-02-04T07:18:03;99001.00;;;1.14;56.54
45991;BME280;31721;41.740;-88.000;2024-02-04T07:20:31;98999.48;;;1.14;56.60
45991;BME280;31721;41.740;-88.000;2024-02-04T07:22:58;98998.52;;;1.10;56.78
45991;BME280;31721;41.740;-88.000;2024-02-04T07:25:26;98999.22;;;1.10;56.56
45991;BME280;31721;41.740;-88.000;2024-02-04T07:27:54;98997.77;;;1.14;56.41
45991;BME280;31721;41.740;-88.000;2024-02-04T07:30:22;99001.41;;;1.19;56.49
45991;BME280;31721;41.740;-88.000;2024-02-04T07:32:49;99002.57;;;1.19;56.38
45991;BME280;31721;41.740;-88.000;2024-02-04T07:35:17;99001.84;;;1.20;56.39
45991;BME280;31721;41.740;-88.000;2024-02-04T07:37:45;98999.98;;;1.11;56.39
45991;BME280;31721;41.740;-88.000;2024-02-04T07:40:14;98994.11;;;1.20;56.34
45991;BME280;31721;41.740;-88.000;2024-02-04T07:42:42;98997.06;;;1.23;56.49
45991;BME280;31721;41.740;-88.000;2024-02-04T07:45:10;99004.15;;;1.08;56.37
45991;BME280;31721;41.740;-88.000;2024-02-04T07:47:37;99009.95;;;1.11;56.28
45991;BME280;31721;41.740;-88.000;2024-02-04T07:50:06;99015.72;;;1.16;56.41
45991;BME280;31721;41.740;-88.000;2024-02-04T07:52:34;99019.96;;;1.19;56.18
45991;BME280;31721;41.740;-88.000;2024-02-04T07:55:02;99026.21;;;1.15;56.11
45991;BME280;31721;41.740;-88.000;2024-02-04T07:57:29;99026.30;;;1.22;55.92
45991;BME280;31721;41.740;-88.000;2024-02-04T07:59:57;99029.99;;;1.11;55.86
45991;BME280;31721;41.740;-88.000;2024-02-04T08:02:25;99029.38;;;1.03;55.89
45991;BME280;31721;41.740;-88.000;2024-02-04T08:04:53;99031.33;;;1.02;56.11
45991;BME280;31721;41.740;-88.000;2024-02-04T08:07:20;99034.47;;;0.94;55.88
45991;BME280;31721;41.740;-88.000;2024-02-04T08:09:48;99037.76;;;0.95;56.13
45991;BME280;31721;41.740;-88.000;2024-02-04T08:12:16;99040.52;;;1.16;56.21
45991;BME280;31721;41.740;-88.000;2024-02-04T08:14:43;99043.54;;;1.12;56.07
45991;BME280;31721;41.740;-88.000;2024-02-04T08:17:11;99046.29;;;0.99;56.13
45991;BME280;31721;41.740;-88.000;2024-02-04T08:19:39;99045.93;;;1.10;56.18
45991;BME280;31721;41.740;-88.000;2024-02-04T08:22:06;99049.44;;;1.06;56.13
45991;BME280;31721;41.740;-88.000;2024-02-04T08:24:35;99046.75;;;1.02;56.06
45991;BME280;31721;41.740;-88.000;2024-02-04T08:27:03;99046.47;;;1.07;55.99
45991;BME280;31721;41.740;-88.000;2024-02-04T08:29:31;99043.59;;;1.06;55.94
45991;BME280;31721;41.740;-88.000;2024-02-04T08:31:58;99039.51;;;1.02;55.84
45991;BME280;31721;41.740;-88.000;2024-02-04T08:34:26;99036.78;;;0.90;55.91
45991;BME280;31721;41.740;-88.000;2024-02-04T08:36:53;99033.25;;;0.88;56.02
45991;BME280;31721;41.740;-88.000;2024-02-04T08:39:21;99027.17;;;0.75;56.22
45991;BME280;31721;41.740;-88.000;2024-02-04T08:41:48;99026.77;;;0.81;56.17
45991;BME280;31721;41.740;-88.000;2024-02-04T08:44:17;99024.21;;;0.67;56.14
45991;BME280;31721;41.740;-88.000;2024-02-04T08:46:45;99021.08;;;0.74;56.12
45991;BME280;31721;41.740;-88.000;2024-02-04T08:49:13;99019.93;;;0.63;56.02
45991;BME280;31721;41.740;-88.000;2024-02-04T08:51:40;99011.21;;;0.61;55.94
45991;BME280;31721;41.740;-88.000;2024-02-04T08:54:08;99010.40;;;0.56;56.21
45991;BME280;31721;41.740;-88.000;2024-02-04T08:56:35;99008.87;;;0.59;56.37
45991;BME280;31721;41.740;-88.000;2024-02-04T08:59:03;99008.69;;;0.54;56.21
45991;BME280;31721;41.740;-88.000;2024-02-04T09:01:31;99003.23;;;0.54;56.32
45991;BME280;31721;41.740;-88.000;2024-02-04T09:03:58;99004.59;;;0.51;56.20
45991;BME280;31721;41.740;-88.000;2024-02-04T09:06:26;99007.40;;;0.37;56.27
45991;BME280;31721;41.740;-88.000;2024-02-04T09:08:53;99010.30;;;0.20;56.81
45991;BME280;31721;41.740;-88.000;2024-02-04T09:11:21;99008.36;;;0.04;56.48
45991;BME280;31721;41.740;-88.000;2024-02-04T09:13:49;99003.96;;;0.11;57.00
45991;BME280;31721;41.740;-88.000;2024-02-04T09:16:17;99004.14;;;0.12;57.12
45991;BME280;31721;41.740;-88.000;2024-02-04T09:18:45;99005.75;;;0.22;57.00
45991;BME280;31721;41.740;-88.000;2024-02-04T09:21:12;99004.03;;;0.23;57.19
45991;BME280;31721;41.740;-88.000;2024-02-04T09:23:41;99006.31;;;0.27;57.05
45991;BME280;31721;41.740;-88.000;2024-02-04T09:26:09;99006.94;;;0.32;56.85
45991;BME280;31721;41.740;-88.000;2024-02-04T09:28:36;99007.23;;;0.27;56.62
45991;BME280;31721;41.740;-88.000;2024-02-04T09:31:04;99009.16;;;0.28;56.78
45991;BME280;31721;41.740;-88.000;2024-02-04T09:33:32;99008.80;;;0.23;56.82
45991;BME280;31721;41.740;-88.000;2024-02-04T09:36:00;99011.35;;;0.33;56.82
45991;BME280;31721;41.740;-88.000;2024-02-04T09:38:27;99007.47;;;0.34;56.82
45991;BME280;31721;41.740;-88.000;2024-02-04T09:40:55;99007.15;;;0.23;56.65
45991;BME280;31721;41.740;-88.000;2024-02-04T09:43:24;99011.83;;;0.35;56.95
45991;BME280;31721;41.740;-88.000;2024-02-04T09:45:52;99013.76;;;0.33;56.98
45991;BME280;31721;41.740;-88.000;2024-02-04T09:48:20;99010.75;;;0.41;56.98
45991;BME280;31721;41.740;-88.000;2024-02-04T09:50:48;99003.26;;;0.35;56.82
45991;BME280;31721;41.740;-88.000;2024-02-04T09:53:21;98998.87;;;0.38;56.87
45991;BME280;31721;41.740;-88.000;2024-02-04T09:55:56;98999.79;;;0.40;56.90
45991;BME280;31721;41.740;-88.000;2024-02-04T09:58:25;99001.64;;;0.32;56.90
45991;BME280;31721;41.740;-88.000;2024-02-04T10:00:54;99002.64;;;0.48;57.08
45991;BME280;31721;41.740;-88.000;2024-02-04T10:03:22;99007.14;;;0.49;56.85
45991;BME280;31721;41.740;-88.000;2024-02-04T10:05:49;99008.14;;;0.51;56.82
45991;BME280;31721;41.740;-88.000;2024-02-04T10:08:18;99005.56;;;0.50;56.89
45991;BME280;31721;41.740;-88.000;2024-02-04T10:10:46;99004.07;;;0.51;56.86
45991;BME280;31721;41.740;-88.000;2024-02-04T10:13:14;99006.53;;;0.45;56.91
45991;BME280;31721;41.740;-88.000;2024-02-04T10:15:42;99010.47;;;0.46;57.13
45991;BME280;31721;41.740;-88.000;2024-02-04T10:18:09;99007.45;;;0.55;57.04
45991;BME280;31721;41.740;-88.000;2024-02-04T10:20:37;99010.03;;;0.42;57.09
45991;BME280;31721;41.740;-88.000;2024-02-04T10:23:05;99008.58;;;0.49;57.07
45991;BME280;31721;41.740;-88.000;2024-02-04T10:25:32;99008.34;;;0.48;57.19
45991;BME280;31721;41.740;-88.000;2024-02-04T10:28:01;99004.56;;;0.62;57.04
45991;BME280;31721;41.740;-88.000;2024-02-04T10:30:29;99003.98;;;0.48;57.13
45991;BME280;31721;41.740;-88.000;2024-02-04T10:32:56;99001.81;;;0.51;56.95
45991;BME280;31721;41.740;-88.000;2024-02-04T10:35:24;99004.06;;;0.40;57.11
45991;BME280;31721;41.740;-88.000;2024-02-04T10:37:52;99007.90;;;0.48;57.03
45991;BME280;31721;41.740;-88.000;2024-02-04T10:40:20;99006.76;;;0.52;56.81
45991;BME280;31721;41.740;-88.000;2024-02-04T10:42:47;99012.78;;;0.51;56.95
45991;BME280;31721;41.740;-88.000;2024-02-04T10:45:17;99014.43;;;0.51;56.87
45991;BME280;31721;41.740;-88.000;2024-02-04T10:47:52;99019.03;;;0.51;56.88
45991;BME280;31721;41.740;-88.000;2024-02-04T10:50:24;99014.31;;;0.40;56.96
45991;BME280;31721;41.740;-88.000;2024-02-04T10:52:52;99015.06;;;0.49;56.94
45991;BME280;31721;41.740;-88.000;2024-02-04T10:55:27;99019.69;;;0.51;57.05
45991;BME280;31721;41.740;-88.000;2024-02-04T10:57:57;99026.29;;;0.36;56.95
45991;BME280;31721;41.740;-88.000;2024-02-04T11:00:25;99025.76;;;0.44;57.14
45991;BME280;31721;41.740;-88.000;2024-02-04T11:02:54;99028.42;;;0.34;57.12
45991;BME280;31721;41.740;-88.000;2024-02-04T11:05:23;99029.75;;;0.35;56.88
45991;BME280;31721;41.740;-88.000;2024-02-04T11:07:51;99030.26;;;0.31;57.16
45991;BME280;31721;41.740;-88.000;2024-02-04T11:10:20;99032.88;;;0.17;57.31
45991;BME280;31721;41.740;-88.000;2024-02-04T11:12:48;99034.26;;;0.21;57.55
45991;BME280;31721;41.740;-88.000;2024-02-04T11:15:18;99035.73;;;0.01;57.66
45991;BME280;31721;41.740;-88.000;2024-02-04T11:18:03;99034.35;;;0.15;57.57
45991;BME280;31721;41.740;-88.000;2024-02-04T11:20:48;99032.90;;;0.16;57.45
45991;BME280;31721;41.740;-88.000;2024-02-04T11:23:35;99029.30;;;0.09;57.52
45991;BME280;31721;41.740;-88.000;2024-02-04T11:26:05;99028.38;;;0.14;57.60
45991;BME280;31721;41.740;-88.000;2024-02-04T11:28:33;99027.73;;;0.14;57.57
45991;BME280;31721;41.740;-88.000;2024-02-04T11:31:01;99025.08;;;0.16;57.41
45991;BME280;31721;41.740;-88.000;2024-02-04T11:33:29;99025.90;;;0.19;57.57
45991;BME280;31721;41.740;-88.000;2024-02-04T11:36:03;99025.64;;;0.20;57.57
45991;BME280;31721;41.740;-88.000;2024-02-04T11:38:33;99024.73;;;0.21;57.42
45991;BME280;31721;41.740;-88.000;2024-02-04T11:41:03;99028.78;;;0.23;57.61
45991;BME280;31721;41.740;-88.000;2024-02-04T11:43:33;99035.33;;;0.26;57.68
45991;BME280;31721;41.740;-88.000;2024-02-04T11:46:03;99039.79;;;0.32;57.51
45991;BME280;31721;41.740;-88.000;2024-02-04T11:48:33;99040.31;;;0.32;57.51
45991;BME280;31721;41.740;-88.000;2024-02-04T11:51:01;99041.36;;;0.32;57.50
45991;BME280;31721;41.740;-88.000;2024-02-04T11:53:29;99043.79;;;0.28;57.57
45991;BME280;31721;41.740;-88.000;2024-02-04T11:55:57;99041.65;;;0.09;57.56
45991;BME280;31721;41.740;-88.000;2024-02-04T11:58:26;99042.52;;;0.23;57.82
45991;BME280;31721;41.740;-88.000;2024-02-04T12:00:56;99040.77;;;0.21;57.65
45991;BME280;31721;41.740;-88.000;2024-02-04T12:03:32;99041.84;;;0.29;57.80
45991;BME280;31721;41.740;-88.000;2024-02-04T12:06:02;99044.19;;;0.22;57.74
45991;BME280;31721;41.740;-88.000;2024-02-04T12:08:32;99046.24;;;0.27;57.73
45991;BME280;31721;41.740;-88.000;2024-02-04T12:11:01;99048.79;;;0.30;57.84
45991;BME280;31721;41.740;-88.000;2024-02-04T12:13:29;99048.39;;;0.35;57.92
45991;BME280;31721;41.740;-88.000;2024-02-04T12:15:58;99050.94;;;0.30;57.93
45991;BME280;31721;41.740;-88.000;2024-02-04T12:18:26;99053.22;;;0.28;57.92
45991;BME280;31721;41.740;-88.000;2024-02-04T12:20:53;99054.03;;;0.21;57.87
45991;BME280;31721;41.740;-88.000;2024-02-04T12:23:21;99050.76;;;0.27;58.27
45991;BME280;31721;41.740;-88.000;2024-02-04T12:25:49;99053.86;;;0.28;58.07
45991;BME280;31721;41.740;-88.000;2024-02-04T12:28:17;99055.83;;;0.26;57.96
45991;BME280;31721;41.740;-88.000;2024-02-04T12:30:53;99054.14;;;0.30;58.03
45991;BME280;31721;41.740;-88.000;2024-02-04T12:33:21;99054.52;;;0.35;58.11
45991;BME280;31721;41.740;-88.000;2024-02-04T12:35:50;99056.72;;;0.30;58.01
45991;BME280;31721;41.740;-88.000;2024-02-04T12:38:18;99062.62;;;0.20;58.34
45991;BME280;31721;41.740;-88.000;2024-02-04T12:40:47;99069.84;;;0.31;58.18
45991;BME280;31721;41.740;-88.000;2024-02-04T12:43:14;99066.26;;;0.39;58.24
45991;BME280;31721;41.740;-88.000;2024-02-04T12:45:42;99065.61;;;0.50;58.11
45991;BME280;31721;41.740;-88.000;2024-02-04T12:48:09;99066.76;;;0.39;57.90
45991;BME280;31721;41.740;-88.000;2024-02-04T12:50:42;99068.87;;;0.38;58.21
45991;BME280;31721;41.740;-88.000;2024-02-04T12:53:10;99073.74;;;0.42;58.12
45991;BME280;31721;41.740;-88.000;2024-02-04T12:55:38;99071.76;;;0.43;57.79